sensor_id;sensor_type;location;lat;lon;timestamp;pressure;altitude;pressure_sealevel;temperature;humidity
28630;BME280;15817;42.130;24.762;2022-12-10T00:01:46;99482.22;;;8.35;100.00
28630;BME280;15817;42.130;24.762;2022-12-10T00:04:13;99460.13;;;8.32;100.00
28630;BME280;15817;42.130;24.762;2022-12-10T00:06:39;99468.97;;;8.32;100.00
28630;BME280;15817;42.130;24.762;2022-12-10T00:09:07;99453.03;;;8.31;100.00
28630;BME280;15817;42.130;24.762;2022-12-10T00:11:38;99461.00;;;8.35;100.00
28630;BME280;15817;42.130;24.762;2022-12-10T00:14:04;99441.59;;;8.30;100.00
28630;BME280;15817;42.130;24.762;2022-12-10T00:16:29;99463.66;;;8.34;100.00
28630;BME280;15817;42.130;24.762;2022-12-10T00:18:59;99457.50;;;8.29;100.00
28630;BME280;15817;42.130;24.762;2022-12-10T00:21:27;99459.25;;;8.33;100.00
28630;BME280;15817;42.130;24.762;2022-12-10T00:23:54;99455.69;;;8.31;100.00
28630;BME280;15817;42.130;24.762;2022-12-10T00:26:28;99468.09;;;8.35;100.00
28630;BME280;15817;42.130;24.762;2022-12-10T00:28:54;99457.50;;;8.32;100.00
28630;BME280;15817;42.130;24.762;2022-12-10T00:31:25;99484.88;;;8.35;100.00
28630;BME280;15817;42.130;24.762;2022-12-10T00:34:00;99460.13;;;8.32;100.00
28630;BME280;15817;42.130;24.762;2022-12-10T00:36:31;99466.31;;;8.35;100.00
28630;BME280;15817;42.130;24.762;2022-12-10T00:38:58;99464.56;;;8.33;100.00
28630;BME280;15817;42.130;24.762;2022-12-10T00:41:26;99478.69;;;8.33;100.00
28630;BME280;15817;42.130;24.762;2022-12-10T00:43:53;99479.53;;;8.31;100.00
28630;BME280;15817;42.130;24.762;2022-12-10T00:46:19;99476.03;;;8.27;100.00
28630;BME280;15817;42.130;24.762;2022-12-10T00:48:47;99454.84;;;8.29;100.00
28630;BME280;15817;42.130;24.762;2022-12-10T00:51:21;99468.97;;;8.34;100.00
28630;BME280;15817;42.130;24.762;2022-12-10T00:54:14;99463.66;;;8.32;100.00
28630;BME280;15817;42.130;24.762;2022-12-10T00:56:43;99459.25;;;8.30;100.00
28630;BME280;15817;42.130;24.762;2022-12-10T00:59:09;99453.94;;;8.31;100.00
28630;BME280;15817;42.130;24.762;2022-12-10T01:01:37;99468.97;;;8.29;100.00
28630;BME280;15817;42.130;24.762;2022-12-10T01:04:10;99459.25;;;8.30;100.00
28630;BME280;15817;42.130;24.762;2022-12-10T01:06:47;99460.13;;;8.29;100.00
28630;BME280;15817;42.130;24.762;2022-12-10T01:09:16;99456.59;;;8.31;100.00
28630;BME280;15817;42.130;24.762;2022-12-10T01:11:43;99468.97;;;8.29;100.00
28630;BME280;15817;42.130;24.762;2022-12-10T01:14:11;99453.97;;;8.28;100.00
28630;BME280;15817;42.130;24.762;2022-12-10T01:16:38;99448.66;;;8.30;100.00
28630;BME280;15817;42.130;24.762;2022-12-10T01:19:04;99443.38;;;8.25;100.00
28630;BME280;15817;42.130;24.762;2022-12-10T01:21:33;99434.53;;;8.25;100.00
28630;BME280;15817;42.130;24.762;2022-12-10T01:24:00;99431.00;;;8.24;100.00
28630;BME280;15817;42.130;24.762;2022-12-10T01:26:29;99445.13;;;8.28;100.00
28630;BME280;15817;42.130;24.762;2022-12-10T01:28:56;99427.47;;;8.25;100.00
28630;BME280;15817;42.130;24.762;2022-12-10T01:31:23;99434.53;;;8.28;100.00
28630;BME280;15817;42.130;24.762;2022-12-10T01:33:50;99421.28;;;8.23;100.00
28630;BME280;15817;42.130;24.762;2022-12-10T01:36:21;99417.75;;;8.27;100.00
28630;BME280;15817;42.130;24.762;2022-12-10T01:38:51;99413.34;;;8.23;100.00
28630;BME280;15817;42.130;24.762;2022-12-10T01:41:22;99411.56;;;8.25;100.00
28630;BME280;15817;42.130;24.762;2022-12-10T01:46:43;99408.03;;;8.28;100.00
28630;BME280;15817;42.130;24.762;2022-12-10T01:49:15;99410.69;;;8.23;100.00
28630;BME280;15817;42.130;24.762;2022-12-10T01:51:45;99393.91;;;8.21;100.00
28630;BME280;15817;42.130;24.762;2022-12-10T01:54:15;99408.03;;;8.26;100.00
28630;BME280;15817;42.130;24.762;2022-12-10T01:56:45;99400.09;;;8.25;100.00
28630;BME280;15817;42.130;24.762;2022-12-10T01:59:14;99386.84;;;8.23;100.00
28630;BME280;15817;42.130;24.762;2022-12-10T02:10:12;99397.44;;;8.22;100.00
28630;BME280;15817;42.130;24.762;2022-12-10T02:12:49;99383.31;;;8.21;100.00
28630;BME280;15817;42.130;24.762;2022-12-10T02:15:21;99384.19;;;8.22;100.00
28630;BME280;15817;42.130;24.762;2022-12-10T02:17:58;99378.91;;;8.28;100.00
28630;BME280;15817;42.130;24.762;2022-12-10T02:20:35;99384.19;;;8.23;100.00
28630;BME280;15817;42.130;24.762;2022-12-10T02:23:08;99382.44;;;8.25;100.00
28630;BME280;15817;42.130;24.762;2022-12-10T02:26:08;99397.44;;;8.26;100.00
28630;BME280;15817;42.130;24.762;2022-12-10T02:28:46;99390.38;;;8.25;100.00
28630;BME280;15817;42.130;24.762;2022-12-10T02:31:18;99386.84;;;8.20;100.00
28630;BME280;15817;42.130;24.762;2022-12-10T02:33:51;99385.09;;;8.22;100.00
28630;BME280;15817;42.130;24.762;2022-12-10T02:36:18;99392.16;;;8.20;100.00
28630;BME280;15817;42.130;24.762;2022-12-10T02:38:48;99399.22;;;8.21;100.00
28630;BME280;15817;42.130;24.762;2022-12-10T02:41:46;99393.91;;;8.21;100.00
28630;BME280;15817;42.130;24.762;2022-12-10T02:44:16;99394.78;;;8.23;100.00
28630;BME280;15817;42.130;24.762;2022-12-10T02:46:45;99397.50;;;8.17;100.00
28630;BME280;15817;42.130;24.762;2022-12-10T02:49:14;99400.97;;;8.21;100.00
28630;BME280;15817;42.130;24.762;2022-12-10T02:51:44;99401.88;;;8.21;100.00
28630;BME280;15817;42.130;24.762;2022-12-10T02:54:47;99405.38;;;8.25;100.00
28630;BME280;15817;42.130;24.762;2022-12-10T03:06:02;99395.69;;;8.24;100.00
28630;BME280;15817;42.130;24.762;2022-12-10T03:08:48;99375.41;;;8.18;100.00
28630;BME280;15817;42.130;24.762;2022-12-10T03:11:18;99380.66;;;8.20;100.00
28630;BME280;15817;42.130;24.762;2022-12-10T03:14:07;99380.72;;;8.11;100.00
28630;BME280;15817;42.130;24.762;2022-12-10T03:16:40;99373.66;;;8.11;100.00
28630;BME280;15817;42.130;24.762;2022-12-10T03:19:12;99363.94;;;8.09;100.00
28630;BME280;15817;42.130;24.762;2022-12-10T03:21:41;99363.06;;;8.13;100.00
28630;BME280;15817;42.130;24.762;2022-12-10T03:24:08;99354.22;;;8.11;100.00
28630;BME280;15817;42.130;24.762;2022-12-10T03:26:36;99360.41;;;8.19;100.00
28630;BME280;15817;42.130;24.762;2022-12-10T03:29:08;99369.22;;;8.18;100.00
28630;BME280;15817;42.130;24.762;2022-12-10T03:31:39;99361.28;;;8.12;100.00
28630;BME280;15817;42.130;24.762;2022-12-10T03:34:49;99356.00;;;8.09;100.00
28630;BME280;15817;42.130;24.762;2022-12-10T03:37:26;99352.47;;;8.10;100.00
28630;BME280;15817;42.130;24.762;2022-12-10T03:39:53;99348.06;;;8.10;100.00
28630;BME280;15817;42.130;24.762;2022-12-10T03:42:21;99342.78;;;8.07;100.00
28630;BME280;15817;42.130;24.762;2022-12-10T03:45:06;99348.94;;;8.09;100.00
28630;BME280;15817;42.130;24.762;2022-12-10T03:47:33;99340.16;;;8.07;100.00
28630;BME280;15817;42.130;24.762;2022-12-10T03:49:58;99351.59;;;8.12;100.00
28630;BME280;15817;42.130;24.762;2022-12-10T03:52:24;99326.88;;;8.10;100.00
28630;BME280;15817;42.130;24.762;2022-12-10T03:54:55;99316.31;;;8.07;100.00
28630;BME280;15817;42.130;24.762;2022-12-10T03:57:24;99340.09;;;8.16;100.00
28630;BME280;15817;42.130;24.762;2022-12-10T03:59:50;99332.16;;;8.16;100.00
28630;BME280;15817;42.130;24.762;2022-12-10T04:02:24;99331.28;;;8.11;100.00
28630;BME280;15817;42.130;24.762;2022-12-10T04:04:52;99333.91;;;8.13;100.00
28630;BME280;15817;42.130;24.762;2022-12-10T04:07:18;99335.69;;;8.14;100.00
28630;BME280;15817;42.130;24.762;2022-12-10T04:09:44;99345.41;;;8.13;100.00
28630;BME280;15817;42.130;24.762;2022-12-10T04:12:13;99344.50;;;8.14;100.00
28630;BME280;15817;42.130;24.762;2022-12-10T04:14:51;99358.63;;;8.18;100.00
28630;BME280;15817;42.130;24.762;2022-12-10T04:17:35;99350.69;;;8.10;100.00
28630;BME280;15817;42.130;24.762;2022-12-10T04:20:02;99342.78;;;8.07;100.00
28630;BME280;15817;42.130;24.762;2022-12-10T04:23:13;99348.06;;;8.09;100.00
28630;BME280;15817;42.130;24.762;2022-12-10T04:26:02;99338.34;;;8.14;100.00
28630;BME280;15817;42.130;24.762;2022-12-10T04:28:49;99334.81;;;8.10;100.00
28630;BME280;15817;42.130;24.762;2022-12-10T04:31:15;99345.44;;;8.04;100.00
28630;BME280;15817;42.130;24.762;2022-12-10T04:33:41;99339.28;;;8.00;100.00
28630;BME280;15817;42.130;24.762;2022-12-10T04:36:25;99344.56;;;8.04;100.00
28630;BME280;15817;42.130;24.762;2022-12-10T04:38:51;99342.75;;;8.09;100.00
28630;BME280;15817;42.130;24.762;2022-12-10T04:41:19;99341.03;;;8.06;100.00
28630;BME280;15817;42.130;24.762;2022-12-10T04:43:45;99349.84;;;8.05;100.00
28630;BME280;15817;42.130;24.762;2022-12-10T04:46:14;99349.84;;;8.07;100.00
28630;BME280;15817;42.130;24.762;2022-12-10T04:48:46;99347.22;;;8.04;100.00
28630;BME280;15817;42.130;24.762;2022-12-10T04:51:12;99352.47;;;8.08;100.00
28630;BME280;15817;42.130;24.762;2022-12-10T04:53:40;99345.44;;;8.04;100.00
28630;BME280;15817;42.130;24.762;2022-12-10T04:56:06;99336.63;;;8.05;100.00
28630;BME280;15817;42.130;24.762;2022-12-10T04:58:33;99348.97;;;8.05;100.00
28630;BME280;15817;42.130;24.762;2022-12-10T05:01:07;99334.84;;;8.03;100.00
28630;BME280;15817;42.130;24.762;2022-12-10T05:03:44;99343.69;;;8.06;100.00
28630;BME280;15817;42.130;24.762;2022-12-10T05:06:12;99314.56;;;8.02;100.00
28630;BME280;15817;42.130;24.762;2022-12-10T05:08:39;99317.19;;;8.03;100.00
28630;BME280;15817;42.130;24.762;2022-12-10T05:11:10;99333.03;;;8.09;100.00
28630;BME280;15817;42.130;24.762;2022-12-10T05:13:37;99323.38;;;8.05;100.00
28630;BME280;15817;42.130;24.762;2022-12-10T05:16:10;99333.97;;;8.04;100.00
28630;BME280;15817;42.130;24.762;2022-12-10T05:18:37;99352.47;;;8.13;100.00
28630;BME280;15817;42.130;24.762;2022-12-10T05:21:05;99333.06;;;8.08;100.00
28630;BME280;15817;42.130;24.762;2022-12-10T05:23:33;99354.22;;;8.11;100.00
28630;BME280;15817;42.130;24.762;2022-12-10T05:26:11;99356.88;;;8.15;100.00
28630;BME280;15817;42.130;24.762;2022-12-10T05:29:04;99337.44;;;8.13;100.00
28630;BME280;15817;42.130;24.762;2022-12-10T05:31:30;99345.41;;;8.12;100.00
28630;BME280;15817;42.130;24.762;2022-12-10T05:33:58;99322.50;;;8.05;100.00
28630;BME280;15817;42.130;24.762;2022-12-10T05:36:29;99333.97;;;8.04;100.00
28630;BME280;15817;42.130;24.762;2022-12-10T05:39:02;99339.28;;;8.05;100.00
28630;BME280;15817;42.130;24.762;2022-12-10T05:41:34;99327.75;;;8.09;100.00
28630;BME280;15817;42.130;24.762;2022-12-10T05:44:00;99330.41;;;8.08;100.00
28630;BME280;15817;42.130;24.762;2022-12-10T05:46:30;99330.41;;;8.09;100.00
28630;BME280;15817;42.130;24.762;2022-12-10T05:49:00;99326.03;;;8.07;100.00
28630;BME280;15817;42.130;24.762;2022-12-10T05:51:30;99325.09;;;8.11;100.00
28630;BME280;15817;42.130;24.762;2022-12-10T05:54:06;99318.97;;;8.07;100.00
28630;BME280;15817;42.130;24.762;2022-12-10T05:56:32;99327.75;;;8.08;100.00
28630;BME280;15817;42.130;24.762;2022-12-10T05:59:01;99318.03;;;8.11;100.00
28630;BME280;15817;42.130;24.762;2022-12-10T06:01:33;99325.09;;;8.12;100.00
28630;BME280;15817;42.130;24.762;2022-12-10T06:04:00;99319.81;;;8.11;100.00
28630;BME280;15817;42.130;24.762;2022-12-10T06:06:29;99318.91;;;8.10;100.00
28630;BME280;15817;42.130;24.762;2022-12-10T06:09:00;99331.25;;;8.19;100.00
28630;BME280;15817;42.130;24.762;2022-12-10T06:11:26;99332.13;;;8.19;100.00
28630;BME280;15817;42.130;24.762;2022-12-10T06:13:54;99319.81;;;8.12;100.00
28630;BME280;15817;42.130;24.762;2022-12-10T06:16:25;99318.03;;;8.14;100.00
28630;BME280;15817;42.130;24.762;2022-12-10T06:18:57;99314.50;;;8.17;100.00
28630;BME280;15817;42.130;24.762;2022-12-10T06:21:25;99305.66;;;8.13;100.00
28630;BME280;15817;42.130;24.762;2022-12-10T06:24:19;99328.63;;;8.19;100.00
28630;BME280;15817;42.130;24.762;2022-12-10T06:27:12;99310.97;;;8.12;100.00
28630;BME280;15817;42.130;24.762;2022-12-10T06:29:44;99312.75;;;8.10;100.00
28630;BME280;15817;42.130;24.762;2022-12-10T06:32:39;99322.44;;;8.17;100.00
28630;BME280;15817;42.130;24.762;2022-12-10T06:35:11;99318.91;;;8.18;100.00
28630;BME280;15817;42.130;24.762;2022-12-10T06:42:03;99338.28;;;8.21;100.00
28630;BME280;15817;42.130;24.762;2022-12-10T06:45:03;99318.03;;;8.17;100.00
28630;BME280;15817;42.130;24.762;2022-12-10T06:47:31;99322.44;;;8.18;100.00
28630;BME280;15817;42.130;24.762;2022-12-10T06:52:50;99324.16;;;8.22;100.00
28630;BME280;15817;42.130;24.762;2022-12-10T06:55:18;99329.44;;;8.24;100.00
28630;BME280;15817;42.130;24.762;2022-12-10T06:57:44;99337.41;;;8.19;100.00
28630;BME280;15817;42.130;24.762;2022-12-10T07:00:12;99326.81;;;8.21;100.00
28630;BME280;15817;42.130;24.762;2022-12-10T07:02:48;99325.03;;;8.23;100.00
28630;BME280;15817;42.130;24.762;2022-12-10T07:05:14;99311.81;;;8.20;100.00
28630;BME280;15817;42.130;24.762;2022-12-10T07:07:47;99317.97;;;8.20;100.00
28630;BME280;15817;42.130;24.762;2022-12-10T07:10:13;99323.28;;;8.20;100.00
28630;BME280;15817;42.130;24.762;2022-12-10T07:12:39;99333.88;;;8.25;100.00
28630;BME280;15817;42.130;24.762;2022-12-10T07:15:11;99340.06;;;8.22;100.00
28630;BME280;15817;42.130;24.762;2022-12-10T07:17:37;99318.88;;;8.19;100.00
28630;BME280;15817;42.130;24.762;2022-12-10T07:20:03;99321.50;;;8.24;100.00
28630;BME280;15817;42.130;24.762;2022-12-10T07:22:33;99308.25;;;8.24;100.00
28630;BME280;15817;42.130;24.762;2022-12-10T07:24:58;99334.75;;;8.28;100.00
28630;BME280;15817;42.130;24.762;2022-12-10T07:27:24;99318.84;;;8.31;100.00
28630;BME280;15817;42.130;24.762;2022-12-10T07:29:57;99304.72;;;8.29;100.00
28630;BME280;15817;42.130;24.762;2022-12-10T07:32:28;99302.97;;;8.25;100.00
28630;BME280;15817;42.130;24.762;2022-12-10T07:34:58;99303.84;;;8.26;100.00
28630;BME280;15817;42.130;24.762;2022-12-10T07:37:24;99311.78;;;8.32;100.00
28630;BME280;15817;42.130;24.762;2022-12-10T07:39:52;99303.84;;;8.29;100.00
28630;BME280;15817;42.130;24.762;2022-12-10T07:42:30;99314.41;;;8.32;100.00
28630;BME280;15817;42.130;24.762;2022-12-10T07:45:17;99321.50;;;8.30;100.00
28630;BME280;15817;42.130;24.762;2022-12-10T07:47:55;99303.81;;;8.30;100.00
28630;BME280;15817;42.130;24.762;2022-12-10T07:50:39;99294.06;;;8.31;100.00
28630;BME280;15817;42.130;24.762;2022-12-10T07:53:10;99300.28;;;8.36;100.00
28630;BME280;15817;42.130;24.762;2022-12-10T07:55:48;99299.38;;;8.37;100.00
28630;BME280;15817;42.130;24.762;2022-12-10T07:58:14;99300.28;;;8.34;100.00
28630;BME280;15817;42.130;24.762;2022-12-10T08:00:42;99302.94;;;8.36;100.00
28630;BME280;15817;42.130;24.762;2022-12-10T08:03:34;99306.47;;;8.37;100.00
28630;BME280;15817;42.130;24.762;2022-12-10T08:06:48;99319.72;;;8.35;100.00
28630;BME280;15817;42.130;24.762;2022-12-10T08:09:24;99301.16;;;8.32;100.00
28630;BME280;15817;42.130;24.762;2022-12-10T08:11:53;99288.78;;;8.35;100.00
28630;BME280;15817;42.130;24.762;2022-12-10T08:14:30;99299.38;;;8.37;100.00
28630;BME280;15817;42.130;24.762;2022-12-10T08:17:05;99290.56;;;8.38;100.00
28630;BME280;15817;42.130;24.762;2022-12-10T08:19:40;99299.38;;;8.42;100.00
28630;BME280;15817;42.130;24.762;2022-12-10T08:22:16;99310.81;;;8.44;100.00
28630;BME280;15817;42.130;24.762;2022-12-10T08:24:50;99305.50;;;8.47;100.00
28630;BME280;15817;42.130;24.762;2022-12-10T08:27:16;99309.94;;;8.43;100.00
28630;BME280;15817;42.130;24.762;2022-12-10T08:29:44;99307.28;;;8.46;100.00
28630;BME280;15817;42.130;24.762;2022-12-10T08:32:13;99312.50;;;8.54;100.00
28630;BME280;15817;42.130;24.762;2022-12-10T08:34:39;99294.91;;;8.48;100.00
28630;BME280;15817;42.130;24.762;2022-12-10T08:37:07;99275.47;;;8.46;100.00
28630;BME280;15817;42.130;24.762;2022-12-10T08:39:41;99272.78;;;8.52;100.00
28630;BME280;15817;42.130;24.762;2022-12-10T08:42:12;99269.22;;;8.55;100.00
28630;BME280;15817;42.130;24.762;2022-12-10T08:44:41;99279.78;;;8.59;100.00
28630;BME280;15817;42.130;24.762;2022-12-10T08:47:07;99263.03;;;8.56;100.00
28630;BME280;15817;42.130;24.762;2022-12-10T08:49:33;99271.84;;;8.59;100.00
28630;BME280;15817;42.130;24.762;2022-12-10T08:51:59;99277.09;;;8.65;100.00
28630;BME280;15817;42.130;24.762;2022-12-10T08:54:25;99282.34;;;8.75;100.00
28630;BME280;15817;42.130;24.762;2022-12-10T08:56:51;99274.38;;;8.75;100.00
28630;BME280;15817;42.130;24.762;2022-12-10T08:59:19;99261.16;;;8.71;100.00
28630;BME280;15817;42.130;24.762;2022-12-10T09:01:45;99272.56;;;8.78;100.00
28630;BME280;15817;42.130;24.762;2022-12-10T09:04:13;99257.63;;;8.71;100.00
28630;BME280;15817;42.130;24.762;2022-12-10T09:06:44;99262.00;;;8.75;100.00
28630;BME280;15817;42.130;24.762;2022-12-10T09:09:09;99250.53;;;8.76;100.00
28630;BME280;15817;42.130;24.762;2022-12-10T09:11:35;99249.56;;;8.82;100.00
28630;BME280;15817;42.130;24.762;2022-12-10T09:14:02;99235.50;;;8.77;100.00
28630;BME280;15817;42.130;24.762;2022-12-10T09:16:32;99236.31;;;8.82;100.00
28630;BME280;15817;42.130;24.762;2022-12-10T09:18:59;99215.06;;;8.85;100.00
28630;BME280;15817;42.130;24.762;2022-12-10T09:21:26;99211.53;;;8.87;100.00
28630;BME280;15817;42.130;24.762;2022-12-10T09:23:56;99216.78;;;8.89;100.00
28630;BME280;15817;42.130;24.762;2022-12-10T09:26:25;99208.72;;;9.01;100.00
28630;BME280;15817;42.130;24.762;2022-12-10T09:28:54;99207.78;;;9.08;100.00
28630;BME280;15817;42.130;24.762;2022-12-10T09:31:20;99224.47;;;9.16;100.00
28630;BME280;15817;42.130;24.762;2022-12-10T09:33:48;99208.50;;;9.22;100.00
28630;BME280;15817;42.130;24.762;2022-12-10T09:36:27;99188.94;;;9.31;100.00
28630;BME280;15817;42.130;24.762;2022-12-10T09:38:53;99169.34;;;9.42;100.00
28630;BME280;15817;42.130;24.762;2022-12-10T09:47:36;99177.19;;;9.50;100.00
28630;BME280;15817;42.130;24.762;2022-12-10T09:50:33;99177.19;;;9.50;100.00
28630;BME280;15817;42.130;24.762;2022-12-10T09:53:04;99170.19;;;9.44;100.00
28630;BME280;15817;42.130;24.762;2022-12-10T09:55:37;99158.59;;;9.50;100.00
28630;BME280;15817;42.130;24.762;2022-12-10T09:58:06;99148.81;;;9.55;100.00
28630;BME280;15817;42.130;24.762;2022-12-10T10:00:51;99149.56;;;9.65;100.00
28630;BME280;15817;42.130;24.762;2022-12-10T10:03:19;99141.53;;;9.69;100.00
28630;BME280;15817;42.130;24.762;2022-12-10T10:05:52;99129.97;;;9.73;100.00
28630;BME280;15817;42.130;24.762;2022-12-10T10:10:59;99130.84;;;9.74;100.00
28630;BME280;15817;42.130;24.762;2022-12-10T10:13:36;99135.25;;;9.75;100.00
28630;BME280;15817;42.130;24.762;2022-12-10T10:16:32;99129.94;;;9.75;100.00
28630;BME280;15817;42.130;24.762;2022-12-10T10:19:01;99117.56;;;9.74;100.00
28630;BME280;15817;42.130;24.762;2022-12-10T10:21:32;99107.88;;;9.70;100.00
28630;BME280;15817;42.130;24.762;2022-12-10T10:23:59;99128.16;;;9.77;100.00
28630;BME280;15817;42.130;24.762;2022-12-10T10:26:26;99137.03;;;9.74;100.00
28630;BME280;15817;42.130;24.762;2022-12-10T10:28:59;99113.19;;;9.70;100.00
28630;BME280;15817;42.130;24.762;2022-12-10T10:31:35;99110.53;;;9.70;100.00
28630;BME280;15817;42.130;24.762;2022-12-10T10:34:06;99118.44;;;9.76;100.00
28630;BME280;15817;42.130;24.762;2022-12-10T10:37:03;99102.53;;;9.74;100.00
28630;BME280;15817;42.130;24.762;2022-12-10T10:39:36;99084.84;;;9.72;100.00
28630;BME280;15817;42.130;24.762;2022-12-10T10:42:08;99089.25;;;9.74;100.00
28630;BME280;15817;42.130;24.762;2022-12-10T10:44:41;99081.28;;;9.74;100.00
28630;BME280;15817;42.130;24.762;2022-12-10T10:47:33;99082.13;;;9.76;100.00
28630;BME280;15817;42.130;24.762;2022-12-10T10:50:05;99075.91;;;9.79;100.00
28630;BME280;15817;42.130;24.762;2022-12-10T10:52:41;99072.31;;;9.81;100.00
28630;BME280;15817;42.130;24.762;2022-12-10T10:55:30;99052.00;;;9.80;100.00
28630;BME280;15817;42.130;24.762;2022-12-10T11:02:41;99052.78;;;9.86;100.00
28630;BME280;15817;42.130;24.762;2022-12-10T11:05:25;99062.38;;;9.93;100.00
28630;BME280;15817;42.130;24.762;2022-12-10T11:08:17;99050.84;;;9.95;100.00
28630;BME280;15817;42.130;24.762;2022-12-10T11:10:55;99058.81;;;9.95;100.00
28630;BME280;15817;42.130;24.762;2022-12-10T11:13:26;99051.69;;;9.97;100.00
28630;BME280;15817;42.130;24.762;2022-12-10T11:18:39;99039.34;;;9.93;100.00
28630;BME280;15817;42.130;24.762;2022-12-10T11:21:38;99035.81;;;9.94;100.00
28630;BME280;15817;42.130;24.762;2022-12-10T11:24:12;99034.91;;;9.95;100.00
28630;BME280;15817;42.130;24.762;2022-12-10T11:29:49;99034.69;;;10.07;100.00
28630;BME280;15817;42.130;24.762;2022-12-10T11:32:51;99035.53;;;10.11;100.00
28630;BME280;15817;42.130;24.762;2022-12-10T11:44:03;98992.06;;;10.15;100.00
28630;BME280;15817;42.130;24.762;2022-12-10T12:07:54;98960.00;;;10.26;100.00
28630;BME280;15817;42.130;24.762;2022-12-10T12:13:49;98967.91;;;10.29;100.00
28630;BME280;15817;42.130;24.762;2022-12-10T12:19:42;98946.59;;;10.32;100.00
28630;BME280;15817;42.130;24.762;2022-12-10T12:22:24;98920.19;;;10.24;100.00
28630;BME280;15817;42.130;24.762;2022-12-10T12:25:08;98927.09;;;10.31;100.00
28630;BME280;15817;42.130;24.762;2022-12-10T12:28:01;98928.94;;;10.28;100.00
28630;BME280;15817;42.130;24.762;2022-12-10T12:30:32;98924.56;;;10.27;100.00
28630;BME280;15817;42.130;24.762;2022-12-10T12:35:40;98940.38;;;10.33;100.00
28630;BME280;15817;42.130;24.762;2022-12-10T12:44:31;98933.31;;;10.32;100.00
28630;BME280;15817;42.130;24.762;2022-12-10T12:46:42;98920.97;;;10.28;100.00
28630;BME280;15817;42.130;24.762;2022-12-10T12:49:28;98910.22;;;10.35;100.00
28630;BME280;15817;42.130;24.762;2022-12-10T12:52:40;98921.63;;;10.39;100.00
28630;BME280;15817;42.130;24.762;2022-12-10T12:55:21;98901.31;;;10.38;100.00
28630;BME280;15817;42.130;24.762;2022-12-10T12:57:57;98931.34;;;10.41;100.00
28630;BME280;15817;42.130;24.762;2022-12-10T13:00:30;98927.94;;;10.35;100.00
28630;BME280;15817;42.130;24.762;2022-12-10T13:06:20;98935.72;;;10.44;100.00
28630;BME280;15817;42.130;24.762;2022-12-10T13:11:31;98925.16;;;10.39;100.00
28630;BME280;15817;42.130;24.762;2022-12-10T13:19:24;98922.44;;;10.42;100.00
28630;BME280;15817;42.130;24.762;2022-12-10T13:21:58;98913.56;;;10.43;100.00
28630;BME280;15817;42.130;24.762;2022-12-10T13:24:59;98915.31;;;10.44;100.00
28630;BME280;15817;42.130;24.762;2022-12-10T13:27:33;98909.19;;;10.41;100.00
28630;BME280;15817;42.130;24.762;2022-12-10T13:30:25;98900.28;;;10.43;100.00
28630;BME280;15817;42.130;24.762;2022-12-10T13:33:15;98916.31;;;10.39;100.00
28630;BME280;15817;42.130;24.762;2022-12-10T13:38:24;98885.28;;;10.39;100.00
28630;BME280;15817;42.130;24.762;2022-12-10T13:41:05;98912.69;;;10.43;100.00
28630;BME280;15817;42.130;24.762;2022-12-10T13:43:59;98899.53;;;10.38;100.00
28630;BME280;15817;42.130;24.762;2022-12-10T13:46:59;98880.94;;;10.37;100.00
28630;BME280;15817;42.130;24.762;2022-12-10T13:49:29;98887.06;;;10.39;100.00
28630;BME280;15817;42.130;24.762;2022-12-10T13:52:03;98872.06;;;10.38;100.00
28630;BME280;15817;42.130;24.762;2022-12-10T14:09:11;98867.53;;;10.41;100.00
28630;BME280;15817;42.130;24.762;2022-12-10T14:11:53;98857.94;;;10.36;100.00
28630;BME280;15817;42.130;24.762;2022-12-10T14:14:38;98858.72;;;10.39;100.00
28630;BME280;15817;42.130;24.762;2022-12-10T14:17:29;98839.41;;;10.31;100.00
28630;BME280;15817;42.130;24.762;2022-12-10T14:19:59;98851.75;;;10.34;100.00
28630;BME280;15817;42.130;24.762;2022-12-10T14:22:46;98842.00;;;10.34;100.00
28630;BME280;15817;42.130;24.762;2022-12-10T14:25:45;98821.88;;;10.24;100.00
28630;BME280;15817;42.130;24.762;2022-12-10T14:28:14;98812.13;;;10.23;100.00
28630;BME280;15817;42.130;24.762;2022-12-10T14:30:45;98815.66;;;10.25;100.00
28630;BME280;15817;42.130;24.762;2022-12-10T14:33:20;98814.84;;;10.20;100.00
28630;BME280;15817;42.130;24.762;2022-12-10T14:35:50;98830.72;;;10.25;100.00
28630;BME280;15817;42.130;24.762;2022-12-10T14:38:25;98823.66;;;10.22;100.00
28630;BME280;15817;42.130;24.762;2022-12-10T14:41:04;98816.59;;;10.21;100.00
28630;BME280;15817;42.130;24.762;2022-12-10T14:43:50;98809.56;;;10.19;100.00
28630;BME280;15817;42.130;24.762;2022-12-10T14:46:25;98818.38;;;10.21;100.00
28630;BME280;15817;42.130;24.762;2022-12-10T14:48:58;98820.16;;;10.20;100.00
28630;BME280;15817;42.130;24.762;2022-12-10T14:51:32;98813.06;;;10.21;100.00
28630;BME280;15817;42.130;24.762;2022-12-10T14:53:59;98821.03;;;10.21;100.00
28630;BME280;15817;42.130;24.762;2022-12-10T14:56:42;98829.00;;;10.21;100.00
28630;BME280;15817;42.130;24.762;2022-12-10T14:59:28;98807.94;;;10.11;100.00
28630;BME280;15817;42.130;24.762;2022-12-10T15:02:04;98802.63;;;10.11;100.00
28630;BME280;15817;42.130;24.762;2022-12-10T15:04:42;98794.69;;;10.08;100.00
28630;BME280;15817;42.130;24.762;2022-12-10T15:07:23;98800.91;;;10.07;100.00
28630;BME280;15817;42.130;24.762;2022-12-10T15:09:54;98806.16;;;10.12;100.00
28630;BME280;15817;42.130;24.762;2022-12-10T15:15:10;98815.03;;;10.11;100.00
28630;BME280;15817;42.130;24.762;2022-12-10T15:17:40;98815.75;;;10.17;100.00
28630;BME280;15817;42.130;24.762;2022-12-10T15:20:22;98794.63;;;10.13;100.00
28630;BME280;15817;42.130;24.762;2022-12-10T15:22:52;98784.09;;;10.07;100.00
28630;BME280;15817;42.130;24.762;2022-12-10T15:25:28;98791.00;;;10.15;100.00